Friday, October 24, 2014, 10:45 PM EDT

KESN, Easton / Newman Field

Location: Easton, MD, United States Lat: 38.8
Local Time: 10:45 PM EDT ( 2:45 GMT) Lon: -76.067
Time Zone: US/Eastern Elev: 72 ft

Show me the last for .
Show Decoded

2014-10-24 20:55 METAR KESN 250055Z 29005KT 10SM SKC 13/07 A2995 =
2014-10-24 17:50 METAR KESN 242150Z 31005KT 10SM SKC 18/08 A2991 =
2014-10-24 15:50 METAR KESN 241950Z 31010G20KT 10SM SKC 20/08 A2990 =
2014-10-24 14:50 METAR KESN 241850Z 31010G20KT 10SM SKC 20/08 A2990 =
2014-10-24 13:50 METAR KESN 241750Z 32010G17KT 10SM SCT060 20/08 A2991 =
2014-10-24 12:50 METAR KESN 241650Z COR 34010G22KT 10SM SCT060 19/08 A2994 =
2014-10-24 11:59 METAR KESN 241559Z 33015G24KT 10SM SCT060 18/08 A2995 =
2014-10-24 10:58 METAR KESN 241458Z 32014G20KT 10SM SCT060 17/09 A2997 =
2014-10-24 09:50 METAR KESN 241350Z 31012G19KT 10SM SCT040 15/09 A2997 =
2014-10-24 08:58 METAR KESN 241258Z 30011KT 10SM SCT038 15/09 A2996 =
2014-10-24 07:50 METAR KESN 241150Z 31009G15KT 10SM BKN038 14/09 A2995 =
2014-10-24 06:50 METAR KESN 241050Z 00000KT 10SM SCT040 13/08 A2995 =
2014-10-24 06:27 METAR KESN 241027Z AUTO 00000KT 10SM SCT042 13/08 A2994 RMK AO2 T01310080 =
2014-10-24 06:09 METAR KESN 241009Z AUTO 32006KT 10SM CLR 13/08 A2994 =
2014-10-24 05:50 METAR KESN 240950Z 31007KT 10SM SKC 13/08 A2994 =
2014-10-24 05:49 METAR KESN 240949Z AUTO 32007KT 10SM CLR 13/08 A2993 RMK AO2 T01310076 =
2014-10-24 05:26 METAR KESN 240929Z AUTO 33009KT 10SM CLR 14/07 A2993 =
2014-10-24 05:26 METAR KESN 240929Z AUTO 33009KT 10SM CLR 14/07 A2993 RMK AO2 T01360073 =
2014-10-24 05:09 METAR KESN 240909Z AUTO 32011G14KT 10SM SCT044 14/08 A2992 =
2014-10-24 04:49 METAR KESN 240849Z AUTO 32009G14KT 10SM OVC046 14/07 A2992 RMK AO2 T01420073 =
2014-10-24 04:26 METAR KESN 240829Z AUTO 32011G16KT 10SM OVC048 15/07 A2991 =
2014-10-24 04:26 METAR KESN 240829Z AUTO 32011G16KT 10SM OVC048 15/07 A2991 RMK AO2 T01460074 =
2014-10-24 04:09 METAR KESN 240809Z AUTO 32009KT 10SM OVC048 15/08 A2991 RMK AO2 T01480076 =
2014-10-24 04:08 METAR KESN 240809Z AUTO 32009KT 10SM OVC048 15/08 A2991 =
2014-10-24 03:49 METAR KESN 240749Z AUTO 33011G16KT 10SM OVC050 15/08 A2990 RMK AO2 T01450076 =
2014-10-24 03:27 METAR KESN 240729Z AUTO 32011G14KT 10SM BKN050 14/08 A2990 =
2014-10-24 03:23 METAR KESN 240729Z AUTO 32011G14KT 10SM BKN050 14/08 A2990 RMK AO2 T01390081 =
2014-10-24 03:09 METAR KESN 240709Z AUTO 00000KT 10SM CLR 13/09 A2990 =
2014-10-24 03:07 METAR KESN 240709Z AUTO 00000KT 10SM CLR 13/09 A2990 RMK AO2 T01290089 =
2014-10-24 02:49 METAR KESN 240649Z AUTO 00000KT 10SM CLR 13/10 A2990 RMK AO2 T01260104 =
2014-10-24 02:28 METAR KESN 240629Z AUTO 00000KT 10SM CLR 13/11 A2990 =
2014-10-24 02:25 METAR KESN 240629Z AUTO 00000KT 10SM CLR 13/11 A2990 RMK AO2 T01300110 =
2014-10-24 02:09 METAR KESN 240609Z AUTO 00000KT 10SM CLR 13/11 A2990 =
2014-10-24 01:49 METAR KESN 240549Z AUTO 00000KT 10SM SCT060 14/11 A2990 RMK AO2 T01350105 =
2014-10-24 01:26 METAR KESN 240529Z AUTO 00000KT 10SM OVC050 14/10 A2990 =
2014-10-24 01:23 METAR KESN 240529Z AUTO 00000KT 10SM OVC050 14/10 A2990 RMK AO2 T01360101 =
2014-10-24 01:08 METAR KESN 240508Z AUTO 33003KT 10SM BKN055 14/10 A2991 =
2014-10-24 00:48 METAR KESN 240448Z AUTO 33006KT 10SM SCT055 SCT070 14/10 A2991 RMK AO2 T01430097
                 =
2014-10-24 00:27 METAR KESN 240428Z AUTO 35008KT 10SM BKN055 OVC070 15/10 A2990 =
2014-10-24 00:25 METAR KESN 240428Z AUTO 35008KT 10SM BKN055 OVC070 15/10 A2990 RMK AO2 T01480097
                 =
2014-10-24 00:08 METAR KESN 240408Z AUTO 35007KT 10SM BKN055 15/10 A2991 =
2014-10-23 23:48 METAR KESN 240348Z AUTO 34006KT 10SM OVC049 15/10 A2991 RMK AO2 T01460100 =
2014-10-23 23:26 METAR KESN 240328Z AUTO 00000KT 10SM BKN049 15/10 A2992 =
2014-10-23 23:23 METAR KESN 240328Z AUTO 00000KT 10SM BKN049 15/10 A2992 RMK AO2 T01460100 =
2014-10-23 23:08 METAR KESN 240308Z AUTO 36005KT 10SM OVC049 15/10 A2992 =
2014-10-23 23:07 METAR KESN 240308Z AUTO 36005KT 10SM OVC049 15/10 A2992 RMK AO2 T01460100 =
2014-10-23 22:48 METAR KESN 240248Z AUTO 01005KT 10SM OVC049 15/10 A2992 RMK AO2 T01460100 =

Support USWX by starting your Amazon purchase here.